sensor_id;sensor_type;location;lat;lon;timestamp;pressure;altitude;pressure_sealevel;temperature;humidity
46534;BME280;32260;52.008;4.752;2023-04-28T00:02:16;101452.09;;;12.65;49.16
46534;BME280;32260;52.008;4.752;2023-04-28T00:04:42;101445.09;;;12.60;49.76
46534;BME280;32260;52.008;4.752;2023-04-28T00:07:08;101441.69;;;12.54;49.14
46534;BME280;32260;52.008;4.752;2023-04-28T00:09:34;101439.13;;;12.49;48.95
46534;BME280;32260;52.008;4.752;2023-04-28T00:12:00;101437.44;;;12.45;48.79
46534;BME280;32260;52.008;4.752;2023-04-28T00:14:27;101429.53;;;12.40;49.23
46534;BME280;32260;52.008;4.752;2023-04-28T00:16:53;101423.34;;;12.38;49.51
46534;BME280;32260;52.008;4.752;2023-04-28T00:19:22;101418.06;;;12.37;49.37
46534;BME280;32260;52.008;4.752;2023-04-28T00:21:48;101416.34;;;12.34;50.64
46534;BME280;32260;52.008;4.752;2023-04-28T00:24:14;101418.16;;;12.34;48.73
46534;BME280;32260;52.008;4.752;2023-04-28T00:26:40;101421.72;;;12.33;49.89
46534;BME280;32260;52.008;4.752;2023-04-28T00:29:07;101419.00;;;12.34;49.51
46534;BME280;32260;52.008;4.752;2023-04-28T00:31:33;101419.88;;;12.35;49.47
46534;BME280;32260;52.008;4.752;2023-04-28T00:34:00;101408.41;;;12.33;49.92
46534;BME280;32260;52.008;4.752;2023-04-28T00:36:26;101399.56;;;12.34;50.12
46534;BME280;32260;52.008;4.752;2023-04-28T00:38:57;101392.44;;;12.34;49.46
46534;BME280;32260;52.008;4.752;2023-04-28T00:41:23;101389.75;;;12.36;50.06
46534;BME280;32260;52.008;4.752;2023-04-28T00:43:50;101384.44;;;12.36;49.22
46534;BME280;32260;52.008;4.752;2023-04-28T00:49:00;101388.00;;;12.35;50.30
46534;BME280;32260;52.008;4.752;2023-04-28T00:51:26;101387.13;;;12.34;51.07
46534;BME280;32260;52.008;4.752;2023-04-28T00:53:54;101388.91;;;12.32;51.11
46534;BME280;32260;52.008;4.752;2023-04-28T00:56:20;101381.00;;;12.30;51.11
46534;BME280;32260;52.008;4.752;2023-04-28T00:58:46;101374.81;;;12.30;50.99
46534;BME280;32260;52.008;4.752;2023-04-28T01:01:13;101373.06;;;12.29;50.67
46534;BME280;32260;52.008;4.752;2023-04-28T01:03:40;101369.50;;;12.28;50.00
46534;BME280;32260;52.008;4.752;2023-04-28T01:06:07;101371.28;;;12.28;50.72
46534;BME280;32260;52.008;4.752;2023-04-28T01:08:36;101370.44;;;12.27;50.70
46534;BME280;32260;52.008;4.752;2023-04-28T01:11:02;101362.47;;;12.27;51.08
46534;BME280;32260;52.008;4.752;2023-04-28T01:13:29;101355.44;;;12.23;52.17
46534;BME280;32260;52.008;4.752;2023-04-28T01:15:55;101345.69;;;12.22;51.43
46534;BME280;32260;52.008;4.752;2023-04-28T01:18:22;101337.72;;;12.22;51.57
46534;BME280;32260;52.008;4.752;2023-04-28T01:20:48;101339.56;;;12.20;51.62
46534;BME280;32260;52.008;4.752;2023-04-28T01:23:16;101344.84;;;12.22;50.82
46534;BME280;32260;52.008;4.752;2023-04-28T01:25:43;101336.00;;;12.21;51.66
46534;BME280;32260;52.008;4.752;2023-04-28T01:28:09;101342.16;;;12.23;51.05
46534;BME280;32260;52.008;4.752;2023-04-28T01:30:36;101324.41;;;12.25;50.85
46534;BME280;32260;52.008;4.752;2023-04-28T01:33:03;101326.16;;;12.26;50.89
46534;BME280;32260;52.008;4.752;2023-04-28T01:35:29;101311.97;;;12.27;50.97
46534;BME280;32260;52.008;4.752;2023-04-28T01:37:56;101316.41;;;12.27;51.63
46534;BME280;32260;52.008;4.752;2023-04-28T01:40:22;101308.41;;;12.28;52.01
46534;BME280;32260;52.008;4.752;2023-04-28T01:42:48;101316.38;;;12.28;51.40
46534;BME280;32260;52.008;4.752;2023-04-28T01:45:14;101319.00;;;12.30;51.28
46534;BME280;32260;52.008;4.752;2023-04-28T01:47:40;101304.84;;;12.29;52.18
46534;BME280;32260;52.008;4.752;2023-04-28T01:50:07;101298.63;;;12.30;50.53
46534;BME280;32260;52.008;4.752;2023-04-28T01:52:33;101300.38;;;12.32;50.97
46534;BME280;32260;52.008;4.752;2023-04-28T01:54:59;101288.84;;;12.33;51.45
46534;BME280;32260;52.008;4.752;2023-04-28T01:57:25;101287.00;;;12.35;51.06
46534;BME280;32260;52.008;4.752;2023-04-28T01:59:54;101280.78;;;12.36;51.40
46534;BME280;32260;52.008;4.752;2023-04-28T02:02:20;101282.63;;;12.34;51.36
46534;BME280;32260;52.008;4.752;2023-04-28T02:04:46;101279.09;;;12.33;51.16
46534;BME280;32260;52.008;4.752;2023-04-28T02:07:12;101282.63;;;12.34;51.73
46534;BME280;32260;52.008;4.752;2023-04-28T02:09:38;101291.47;;;12.34;51.81
46534;BME280;32260;52.008;4.752;2023-04-28T02:12:04;101287.00;;;12.35;51.86
46534;BME280;32260;52.008;4.752;2023-04-28T02:14:30;101275.47;;;12.36;52.02
46534;BME280;32260;52.008;4.752;2023-04-28T02:16:58;101264.84;;;12.36;51.53
46534;BME280;32260;52.008;4.752;2023-04-28T02:19:24;101257.81;;;12.33;51.49
46534;BME280;32260;52.008;4.752;2023-04-28T02:21:50;101264.03;;;12.32;51.74
46534;BME280;32260;52.008;4.752;2023-04-28T02:24:16;101258.75;;;12.30;51.54
46534;BME280;32260;52.008;4.752;2023-04-28T02:26:42;101262.31;;;12.29;51.50
46534;BME280;32260;52.008;4.752;2023-04-28T02:29:08;101255.25;;;12.28;51.53
46534;BME280;32260;52.008;4.752;2023-04-28T02:31:34;101247.25;;;12.32;51.71
46534;BME280;32260;52.008;4.752;2023-04-28T02:34:00;101244.53;;;12.33;51.31
46534;BME280;32260;52.008;4.752;2023-04-28T02:36:27;101239.19;;;12.35;51.23
46534;BME280;32260;52.008;4.752;2023-04-28T02:38:53;101227.72;;;12.33;51.29
46534;BME280;32260;52.008;4.752;2023-04-28T02:41:19;101225.00;;;12.36;51.39
46534;BME280;32260;52.008;4.752;2023-04-28T02:43:45;101228.50;;;12.38;50.92
46534;BME280;32260;52.008;4.752;2023-04-28T02:46:11;101221.44;;;12.37;51.36
46534;BME280;32260;52.008;4.752;2023-04-28T02:48:37;101217.91;;;12.36;50.86
46534;BME280;32260;52.008;4.752;2023-04-28T02:51:04;101216.97;;;12.39;50.75
46534;BME280;32260;52.008;4.752;2023-04-28T02:53:30;101220.50;;;12.39;50.86
46534;BME280;32260;52.008;4.752;2023-04-28T02:55:56;101213.38;;;12.40;50.80
46534;BME280;32260;52.008;4.752;2023-04-28T02:58:23;101211.66;;;12.39;51.19
46534;BME280;32260;52.008;4.752;2023-04-28T03:00:49;101210.81;;;12.37;50.84
46534;BME280;32260;52.008;4.752;2023-04-28T03:03:15;101215.22;;;12.38;51.04
46534;BME280;32260;52.008;4.752;2023-04-28T03:05:41;101223.16;;;12.39;51.43
46534;BME280;32260;52.008;4.752;2023-04-28T03:08:07;101215.13;;;12.41;51.30
46534;BME280;32260;52.008;4.752;2023-04-28T03:10:33;101212.47;;;12.41;50.74
46534;BME280;32260;52.008;4.752;2023-04-28T03:12:59;101213.38;;;12.41;50.85
46534;BME280;32260;52.008;4.752;2023-04-28T03:15:25;101208.91;;;12.42;51.05
46534;BME280;32260;52.008;4.752;2023-04-28T03:17:51;101217.78;;;12.41;50.82
46534;BME280;32260;52.008;4.752;2023-04-28T03:20:18;101214.25;;;12.42;51.30
46534;BME280;32260;52.008;4.752;2023-04-28T03:22:44;101218.66;;;12.43;51.04
46534;BME280;32260;52.008;4.752;2023-04-28T03:25:10;101220.38;;;12.45;50.81
46534;BME280;32260;52.008;4.752;2023-04-28T03:27:36;101207.97;;;12.44;50.38
46534;BME280;32260;52.008;4.752;2023-04-28T03:30:02;101205.38;;;12.43;50.78
46534;BME280;32260;52.008;4.752;2023-04-28T03:32:28;101199.19;;;12.42;50.83
46534;BME280;32260;52.008;4.752;2023-04-28T03:34:54;101198.28;;;12.42;51.00
46534;BME280;32260;52.008;4.752;2023-04-28T03:37:21;101201.00;;;12.40;50.42
46534;BME280;32260;52.008;4.752;2023-04-28T03:39:47;101194.78;;;12.40;50.23
46534;BME280;32260;52.008;4.752;2023-04-28T03:42:13;101177.44;;;12.23;50.65
46534;BME280;32260;52.008;4.752;2023-04-28T03:44:39;101180.00;;;12.28;51.03
46534;BME280;32260;52.008;4.752;2023-04-28T03:47:05;101189.69;;;12.30;50.86
46534;BME280;32260;52.008;4.752;2023-04-28T03:49:31;101176.41;;;12.30;50.69
46534;BME280;32260;52.008;4.752;2023-04-28T03:51:57;101171.09;;;12.30;51.00
46534;BME280;32260;52.008;4.752;2023-04-28T03:54:23;101176.34;;;12.34;50.54
46534;BME280;32260;52.008;4.752;2023-04-28T03:56:49;101170.09;;;12.35;51.10
46534;BME280;32260;52.008;4.752;2023-04-28T03:59:15;101170.09;;;12.35;50.62
46534;BME280;32260;52.008;4.752;2023-04-28T04:01:42;101167.44;;;12.36;50.77
46534;BME280;32260;52.008;4.752;2023-04-28T04:04:08;101162.03;;;12.39;50.53
46534;BME280;32260;52.008;4.752;2023-04-28T04:06:34;101156.72;;;12.39;51.37
46534;BME280;32260;52.008;4.752;2023-04-28T04:09:00;101155.81;;;12.40;51.49
46534;BME280;32260;52.008;4.752;2023-04-28T04:11:26;101150.53;;;12.39;51.14
46534;BME280;32260;52.008;4.752;2023-04-28T04:13:52;101133.66;;;12.40;50.77
46534;BME280;32260;52.008;4.752;2023-04-28T04:16:19;101134.59;;;12.39;50.48
46534;BME280;32260;52.008;4.752;2023-04-28T04:18:46;101131.09;;;12.37;50.61
46534;BME280;32260;52.008;4.752;2023-04-28T04:21:12;101131.19;;;12.34;50.55
46534;BME280;32260;52.008;4.752;2023-04-28T04:23:38;101117.03;;;12.32;50.43
46534;BME280;32260;52.008;4.752;2023-04-28T04:26:04;101119.75;;;12.28;50.32
46534;BME280;32260;52.008;4.752;2023-04-28T04:28:31;101107.41;;;12.27;50.42
46534;BME280;32260;52.008;4.752;2023-04-28T04:30:57;101110.25;;;12.18;51.05
46534;BME280;32260;52.008;4.752;2023-04-28T04:33:23;101107.59;;;12.18;50.86
46534;BME280;32260;52.008;4.752;2023-04-28T04:35:49;101104.03;;;12.19;50.85
46534;BME280;32260;52.008;4.752;2023-04-28T04:38:15;101109.34;;;12.19;51.11
46534;BME280;32260;52.008;4.752;2023-04-28T04:40:41;101119.94;;;12.21;50.89
46534;BME280;32260;52.008;4.752;2023-04-28T04:43:07;101114.56;;;12.22;50.97
46534;BME280;32260;52.008;4.752;2023-04-28T04:45:33;101116.38;;;12.22;51.74
46534;BME280;32260;52.008;4.752;2023-04-28T04:48:00;101129.56;;;12.26;51.28
46534;BME280;32260;52.008;4.752;2023-04-28T04:50:26;101140.09;;;12.29;51.26
46534;BME280;32260;52.008;4.752;2023-04-28T04:52:52;101133.84;;;12.34;51.81
46534;BME280;32260;52.008;4.752;2023-04-28T04:55:21;101139.78;;;12.43;50.67
46534;BME280;32260;52.008;4.752;2023-04-28T04:57:47;101139.78;;;12.45;51.29
46534;BME280;32260;52.008;4.752;2023-04-28T05:00:13;101137.94;;;12.47;51.12
46534;BME280;32260;52.008;4.752;2023-04-28T05:02:41;101124.69;;;12.45;51.25
46534;BME280;32260;52.008;4.752;2023-04-28T05:05:08;101130.88;;;12.46;51.45
46534;BME280;32260;52.008;4.752;2023-04-28T05:07:34;101130.09;;;12.42;51.49
46534;BME280;32260;52.008;4.752;2023-04-28T05:10:00;101130.94;;;12.43;51.06
46534;BME280;32260;52.008;4.752;2023-04-28T05:12:26;101135.38;;;12.44;51.33
46534;BME280;32260;52.008;4.752;2023-04-28T05:14:52;101139.91;;;12.39;51.92
46534;BME280;32260;52.008;4.752;2023-04-28T05:17:19;101139.84;;;12.42;51.92
46534;BME280;32260;52.008;4.752;2023-04-28T05:19:45;101140.72;;;12.41;51.32
46534;BME280;32260;52.008;4.752;2023-04-28T05:22:11;101133.66;;;12.40;51.53
46534;BME280;32260;52.008;4.752;2023-04-28T05:24:37;101122.28;;;12.35;53.41
46534;BME280;32260;52.008;4.752;2023-04-28T05:27:03;101136.50;;;12.34;53.83
46534;BME280;32260;52.008;4.752;2023-04-28T05:29:29;101141.84;;;12.30;55.37
46534;BME280;32260;52.008;4.752;2023-04-28T05:31:55;101138.41;;;12.27;55.45
46534;BME280;32260;52.008;4.752;2023-04-28T05:34:21;101124.31;;;12.23;54.13
46534;BME280;32260;52.008;4.752;2023-04-28T05:36:47;101114.72;;;12.18;56.17
46534;BME280;32260;52.008;4.752;2023-04-28T05:39:14;101113.91;;;12.14;55.05
46534;BME280;32260;52.008;4.752;2023-04-28T05:41:40;101131.72;;;12.09;56.57
46534;BME280;32260;52.008;4.752;2023-04-28T05:44:06;101113.22;;;12.04;55.34
46534;BME280;32260;52.008;4.752;2023-04-28T05:46:32;101104.41;;;12.02;55.08
46534;BME280;32260;52.008;4.752;2023-04-28T05:48:58;101110.75;;;11.96;55.54
46534;BME280;32260;52.008;4.752;2023-04-28T05:51:24;101086.03;;;11.91;55.41
46534;BME280;32260;52.008;4.752;2023-04-28T05:53:51;101083.53;;;11.84;57.09
46534;BME280;32260;52.008;4.752;2023-04-28T05:56:18;101090.66;;;11.81;57.46
46534;BME280;32260;52.008;4.752;2023-04-28T05:58:44;101090.75;;;11.77;58.28
46534;BME280;32260;52.008;4.752;2023-04-28T06:01:10;101093.47;;;11.74;57.69
46534;BME280;32260;52.008;4.752;2023-04-28T06:03:36;101093.41;;;11.77;57.42
46534;BME280;32260;52.008;4.752;2023-04-28T06:06:02;101096.06;;;11.77;58.13
46534;BME280;32260;52.008;4.752;2023-04-28T06:08:29;101087.13;;;11.81;57.68
46534;BME280;32260;52.008;4.752;2023-04-28T06:10:55;101089.72;;;11.84;58.28
46534;BME280;32260;52.008;4.752;2023-04-28T06:13:21;101087.97;;;11.83;59.33
46534;BME280;32260;52.008;4.752;2023-04-28T06:15:47;101095.72;;;11.92;58.46
46534;BME280;32260;52.008;4.752;2023-04-28T06:18:13;101099.13;;;12.01;58.05
46534;BME280;32260;52.008;4.752;2023-04-28T06:20:41;101099.84;;;12.09;58.12
46534;BME280;32260;52.008;4.752;2023-04-28T06:23:07;101101.44;;;12.16;58.92
46534;BME280;32260;52.008;4.752;2023-04-28T06:25:35;101096.06;;;12.19;59.41
46534;BME280;32260;52.008;4.752;2023-04-28T06:28:02;101089.72;;;12.25;58.62
46534;BME280;32260;52.008;4.752;2023-04-28T06:30:28;101086.16;;;12.26;59.10
46534;BME280;32260;52.008;4.752;2023-04-28T06:32:54;101086.06;;;12.30;58.91
46534;BME280;32260;52.008;4.752;2023-04-28T06:35:22;101100.19;;;12.33;60.22
46534;BME280;32260;52.008;4.752;2023-04-28T06:37:48;101093.81;;;12.40;60.06
46534;BME280;32260;52.008;4.752;2023-04-28T06:40:15;101091.84;;;12.48;60.10
46534;BME280;32260;52.008;4.752;2023-04-28T06:42:41;101087.19;;;12.58;59.87
46534;BME280;32260;52.008;4.752;2023-04-28T06:45:07;101083.44;;;12.67;58.96
46534;BME280;32260;52.008;4.752;2023-04-28T06:47:34;101087.69;;;12.74;59.61
46534;BME280;32260;52.008;4.752;2023-04-28T06:50:01;101075.16;;;12.79;59.12
46534;BME280;32260;52.008;4.752;2023-04-28T06:52:27;101075.94;;;12.83;59.24
46534;BME280;32260;52.008;4.752;2023-04-28T06:54:54;101073.19;;;12.86;58.10
46534;BME280;32260;52.008;4.752;2023-04-28T06:57:20;101073.94;;;12.92;60.13
46534;BME280;32260;52.008;4.752;2023-04-28T06:59:46;101065.63;;;13.05;60.41
46534;BME280;32260;52.008;4.752;2023-04-28T07:02:13;101060.84;;;13.18;59.38
46534;BME280;32260;52.008;4.752;2023-04-28T07:04:39;101060.66;;;13.24;59.83
46534;BME280;32260;52.008;4.752;2023-04-28T07:07:05;101069.34;;;13.31;60.53
46534;BME280;32260;52.008;4.752;2023-04-28T07:09:34;101055.88;;;13.37;60.20
46534;BME280;32260;52.008;4.752;2023-04-28T07:12:00;101071.84;;;13.37;61.08
46534;BME280;32260;52.008;4.752;2023-04-28T07:14:26;101064.63;;;13.42;60.25
46534;BME280;32260;52.008;4.752;2023-04-28T07:16:52;101065.47;;;13.44;59.95
46534;BME280;32260;52.008;4.752;2023-04-28T07:19:18;101062.72;;;13.47;59.55
46534;BME280;32260;52.008;4.752;2023-04-28T07:21:44;101068.06;;;13.47;59.70
46534;BME280;32260;52.008;4.752;2023-04-28T07:24:11;101078.78;;;13.44;60.06
46534;BME280;32260;52.008;4.752;2023-04-28T07:26:37;101075.38;;;13.39;61.31
46534;BME280;32260;52.008;4.752;2023-04-28T07:29:03;101069.13;;;13.40;61.27
46534;BME280;32260;52.008;4.752;2023-04-28T07:31:29;101070.84;;;13.42;60.27
46534;BME280;32260;52.008;4.752;2023-04-28T07:33:59;101073.38;;;13.47;61.55
46534;BME280;32260;52.008;4.752;2023-04-28T07:36:28;101075.03;;;13.51;61.27
46534;BME280;32260;52.008;4.752;2023-04-28T07:38:54;101073.09;;;13.56;61.72
46534;BME280;32260;52.008;4.752;2023-04-28T07:41:21;101083.63;;;13.61;60.68
46534;BME280;32260;52.008;4.752;2023-04-28T07:43:47;101078.16;;;13.66;60.51
46534;BME280;32260;52.008;4.752;2023-04-28T07:46:13;101079.88;;;13.67;62.70
46534;BME280;32260;52.008;4.752;2023-04-28T07:48:39;101085.94;;;13.73;62.05
46534;BME280;32260;52.008;4.752;2023-04-28T07:51:05;101081.38;;;13.77;62.24
46534;BME280;32260;52.008;4.752;2023-04-28T07:53:31;101071.53;;;13.79;62.08
46534;BME280;32260;52.008;4.752;2023-04-28T07:55:57;101070.44;;;13.86;62.47
46534;BME280;32260;52.008;4.752;2023-04-28T07:58:24;101064.94;;;13.93;62.36
46534;BME280;32260;52.008;4.752;2023-04-28T08:00:50;101063.78;;;14.01;62.23
46534;BME280;32260;52.008;4.752;2023-04-28T08:03:16;101069.69;;;14.11;62.28
46534;BME280;32260;52.008;4.752;2023-04-28T08:05:42;101071.25;;;14.18;62.73
46534;BME280;32260;52.008;4.752;2023-04-28T08:08:09;101071.16;;;14.21;63.39
46534;BME280;32260;52.008;4.752;2023-04-28T08:10:36;101067.38;;;14.29;62.12
46534;BME280;32260;52.008;4.752;2023-04-28T08:13:05;101067.28;;;14.32;62.56
46534;BME280;32260;52.008;4.752;2023-04-28T08:15:31;101075.19;;;14.35;63.31
46534;BME280;32260;52.008;4.752;2023-04-28T08:17:57;101067.06;;;14.38;63.17
46534;BME280;32260;52.008;4.752;2023-04-28T08:20:23;101067.94;;;14.38;63.14
46534;BME280;32260;52.008;4.752;2023-04-28T08:22:49;101065.16;;;14.43;62.28
46534;BME280;32260;52.008;4.752;2023-04-28T08:25:16;101066.78;;;14.47;62.98
46534;BME280;32260;52.008;4.752;2023-04-28T08:27:43;101066.66;;;14.50;63.04
46534;BME280;32260;52.008;4.752;2023-04-28T08:30:09;101065.66;;;14.54;62.62
46534;BME280;32260;52.008;4.752;2023-04-28T08:32:35;101074.44;;;14.58;62.33
46534;BME280;32260;52.008;4.752;2023-04-28T08:35:02;101076.06;;;14.62;63.86
46534;BME280;32260;52.008;4.752;2023-04-28T08:37:28;101073.28;;;14.67;63.24
46534;BME280;32260;52.008;4.752;2023-04-28T08:39:54;101069.59;;;14.71;63.86
46534;BME280;32260;52.008;4.752;2023-04-28T08:42:30;101073.88;;;14.75;62.45
46534;BME280;32260;52.008;4.752;2023-04-28T08:44:58;101053.47;;;14.74;63.48
46534;BME280;32260;52.008;4.752;2023-04-28T08:47:32;101060.34;;;14.81;62.20
46534;BME280;32260;52.008;4.752;2023-04-28T08:50:03;101054.91;;;14.84;64.11
46534;BME280;32260;52.008;4.752;2023-04-28T08:52:30;101058.34;;;14.88;63.55
46534;BME280;32260;52.008;4.752;2023-04-28T08:55:01;101058.16;;;14.93;63.04
46534;BME280;32260;52.008;4.752;2023-04-28T09:00:18;101052.41;;;15.05;63.45
46534;BME280;32260;52.008;4.752;2023-04-28T09:02:44;101047.75;;;15.12;62.92
46534;BME280;32260;52.008;4.752;2023-04-28T09:05:12;101050.13;;;15.19;63.83
46534;BME280;32260;52.008;4.752;2023-04-28T09:07:39;101051.81;;;15.22;65.41
46534;BME280;32260;52.008;4.752;2023-04-28T09:10:22;101052.94;;;15.40;62.89
46534;BME280;32260;52.008;4.752;2023-04-28T09:12:52;101043.97;;;15.43;63.42
46534;BME280;32260;52.008;4.752;2023-04-28T09:15:36;101053.22;;;15.56;64.50
46534;BME280;32260;52.008;4.752;2023-04-28T09:18:04;101041.56;;;15.59;65.02
46534;BME280;32260;52.008;4.752;2023-04-28T09:20:32;101043.84;;;15.69;64.87
46534;BME280;32260;52.008;4.752;2023-04-28T09:23:19;101043.16;;;15.88;63.93
46534;BME280;32260;52.008;4.752;2023-04-28T09:26:02;101031.38;;;15.94;64.14
46534;BME280;32260;52.008;4.752;2023-04-28T09:28:30;101031.47;;;15.91;63.45
46534;BME280;32260;52.008;4.752;2023-04-28T09:30:56;101035.97;;;15.90;63.99
46534;BME280;32260;52.008;4.752;2023-04-28T09:33:23;101032.22;;;15.94;64.28
46534;BME280;32260;52.008;4.752;2023-04-28T09:35:49;101037.34;;;16.00;63.71
46534;BME280;32260;52.008;4.752;2023-04-28T09:38:17;101037.19;;;16.04;63.97
46534;BME280;32260;52.008;4.752;2023-04-28T09:43:32;101041.44;;;16.09;63.65
46534;BME280;32260;52.008;4.752;2023-04-28T09:46:01;101042.53;;;16.04;63.99
46534;BME280;32260;52.008;4.752;2023-04-28T09:51:08;101036.34;;;16.03;64.36
46534;BME280;32260;52.008;4.752;2023-04-28T09:53:34;101033.59;;;16.05;63.91
46534;BME280;32260;52.008;4.752;2023-04-28T09:56:02;101035.28;;;16.07;64.13
46534;BME280;32260;52.008;4.752;2023-04-28T09:58:30;101038.94;;;16.05;64.57
46534;BME280;32260;52.008;4.752;2023-04-28T10:00:59;101046.78;;;16.09;64.59
46534;BME280;32260;52.008;4.752;2023-04-28T10:03:28;101039.34;;;16.17;64.71
46534;BME280;32260;52.008;4.752;2023-04-28T10:05:55;101042.94;;;16.16;64.60
46534;BME280;32260;52.008;4.752;2023-04-28T10:08:22;101047.16;;;16.22;64.61
46534;BME280;32260;52.008;4.752;2023-04-28T10:10:50;101042.72;;;16.21;64.88
46534;BME280;32260;52.008;4.752;2023-04-28T10:13:20;101043.91;;;16.36;64.64
46534;BME280;32260;52.008;4.752;2023-04-28T10:15:47;101047.22;;;16.43;64.96
46534;BME280;32260;52.008;4.752;2023-04-28T10:18:14;101034.34;;;16.53;64.88
46534;BME280;32260;52.008;4.752;2023-04-28T10:20:45;101039.19;;;16.65;65.08
46534;BME280;32260;52.008;4.752;2023-04-28T10:24:07;101035.25;;;16.74;64.63
46534;BME280;32260;52.008;4.752;2023-04-28T10:26:19;101036.97;;;16.75;64.44
46534;BME280;32260;52.008;4.752;2023-04-28T10:28:48;101035.84;;;16.80;64.30
46534;BME280;32260;52.008;4.752;2023-04-28T10:31:17;101040.09;;;16.85;64.13
46534;BME280;32260;52.008;4.752;2023-04-28T10:33:46;101043.44;;;16.91;64.18
46534;BME280;32260;52.008;4.752;2023-04-28T10:37:03;101046.28;;;16.87;64.51
46534;BME280;32260;52.008;4.752;2023-04-28T10:39:20;101045.78;;;16.77;64.53
46534;BME280;32260;52.008;4.752;2023-04-28T10:41:47;101058.56;;;16.70;64.57
46534;BME280;32260;52.008;4.752;2023-04-28T10:47:07;101053.19;;;16.49;65.81
46534;BME280;32260;52.008;4.752;2023-04-28T10:55:29;101074.13;;;16.60;66.00
46534;BME280;32260;52.008;4.752;2023-04-28T11:04:06;101061.44;;;16.43;66.51
46534;BME280;32260;52.008;4.752;2023-04-28T11:06:40;101052.63;;;16.41;66.38
46534;BME280;32260;52.008;4.752;2023-04-28T11:12:05;101065.06;;;16.42;66.47
46534;BME280;32260;52.008;4.752;2023-04-28T11:14:33;101056.59;;;16.31;66.55
46534;BME280;32260;52.008;4.752;2023-04-28T11:17:03;101063.84;;;16.29;66.68
46534;BME280;32260;52.008;4.752;2023-04-28T11:19:32;101061.44;;;16.21;66.88
46534;BME280;32260;52.008;4.752;2023-04-28T11:22:01;101060.41;;;16.25;66.57
46534;BME280;32260;52.008;4.752;2023-04-28T11:24:29;101055.50;;;16.14;67.23
46534;BME280;32260;52.008;4.752;2023-04-28T11:26:56;101057.84;;;16.22;67.37
46534;BME280;32260;52.008;4.752;2023-04-28T11:29:38;101056.75;;;16.28;67.10
46534;BME280;32260;52.008;4.752;2023-04-28T11:32:07;101069.19;;;16.29;66.86
46534;BME280;32260;52.008;4.752;2023-04-28T11:34:34;101070.44;;;16.20;67.16
46534;BME280;32260;52.008;4.752;2023-04-28T11:37:01;101062.56;;;16.15;66.87
46534;BME280;32260;52.008;4.752;2023-04-28T11:39:30;101065.06;;;16.20;66.89
46534;BME280;32260;52.008;4.752;2023-04-28T11:41:58;101072.88;;;16.25;67.45
46534;BME280;32260;52.008;4.752;2023-04-28T11:44:26;101064.75;;;16.28;67.06
46534;BME280;32260;52.008;4.752;2023-04-28T11:46:55;101069.19;;;16.29;67.51
46534;BME280;32260;52.008;4.752;2023-04-28T11:49:23;101071.84;;;16.29;67.27
46534;BME280;32260;52.008;4.752;2023-04-28T11:51:50;101074.47;;;16.30;67.55
46534;BME280;32260;52.008;4.752;2023-04-28T11:54:25;101075.38;;;16.29;67.48
46534;BME280;32260;52.008;4.752;2023-04-28T11:56:53;101079.00;;;16.28;67.53
46534;BME280;32260;52.008;4.752;2023-04-28T11:59:26;101076.28;;;16.30;67.45
46534;BME280;32260;52.008;4.752;2023-04-28T12:01:54;101077.75;;;16.37;67.59
46534;BME280;32260;52.008;4.752;2023-04-28T12:04:38;101074.88;;;16.42;67.63
46534;BME280;32260;52.008;4.752;2023-04-28T12:07:08;101082.06;;;16.41;67.82
46534;BME280;32260;52.008;4.752;2023-04-28T12:09:36;101086.34;;;16.45;67.33
46534;BME280;32260;52.008;4.752;2023-04-28T12:12:04;101089.84;;;16.47;67.83
46534;BME280;32260;52.008;4.752;2023-04-28T12:17:39;101090.44;;;16.54;67.97
46534;BME280;32260;52.008;4.752;2023-04-28T12:20:08;101089.59;;;16.54;67.71
46534;BME280;32260;52.008;4.752;2023-04-28T12:22:50;101084.84;;;16.60;67.60
46534;BME280;32260;52.008;4.752;2023-04-28T12:25:17;101085.94;;;16.55;67.61
46534;BME280;32260;52.008;4.752;2023-04-28T12:28:02;101095.97;;;16.49;68.22
46534;BME280;32260;52.008;4.752;2023-04-28T12:30:31;101093.53;;;16.43;68.04
46534;BME280;32260;52.008;4.752;2023-04-28T12:32:57;101095.19;;;16.47;67.86
46534;BME280;32260;52.008;4.752;2023-04-28T12:35:24;101096.91;;;16.48;68.09
46534;BME280;32260;52.008;4.752;2023-04-28T12:37:52;101096.66;;;16.55;68.54
46534;BME280;32260;52.008;4.752;2023-04-28T12:40:18;101094.69;;;16.60;68.09
46534;BME280;32260;52.008;4.752;2023-04-28T12:42:45;101086.25;;;16.69;67.90
46534;BME280;32260;52.008;4.752;2023-04-28T12:45:11;101097.78;;;16.71;68.16
46534;BME280;32260;52.008;4.752;2023-04-28T12:47:37;101101.13;;;16.76;67.93
46534;BME280;32260;52.008;4.752;2023-04-28T12:50:05;101094.28;;;16.69;68.28
46534;BME280;32260;52.008;4.752;2023-04-28T12:52:31;101091.78;;;16.64;68.26
46534;BME280;32260;52.008;4.752;2023-04-28T12:54:59;101099.78;;;16.66;67.92
46534;BME280;32260;52.008;4.752;2023-04-28T12:57:25;101109.09;;;16.56;68.24
46534;BME280;32260;52.008;4.752;2023-04-28T12:59:51;101107.25;;;16.58;68.17
46534;BME280;32260;52.008;4.752;2023-04-28T13:02:18;101106.00;;;16.44;68.28
46534;BME280;32260;52.008;4.752;2023-04-28T13:04:44;101111.50;;;16.40;67.98
46534;BME280;32260;52.008;4.752;2023-04-28T13:07:11;101121.72;;;16.30;68.39
46534;BME280;32260;52.008;4.752;2023-04-28T13:09:38;101110.16;;;16.29;68.34
46534;BME280;32260;52.008;4.752;2023-04-28T13:12:04;101118.31;;;16.26;68.47
46534;BME280;32260;52.008;4.752;2023-04-28T13:14:30;101110.22;;;16.28;68.19
46534;BME280;32260;52.008;4.752;2023-04-28T13:16:56;101119.22;;;16.25;68.43
46534;BME280;32260;52.008;4.752;2023-04-28T13:19:23;101121.16;;;16.22;68.36
46534;BME280;32260;52.008;4.752;2023-04-28T13:21:49;101128.19;;;16.24;68.33
46534;BME280;32260;52.008;4.752;2023-04-28T13:24:15;101127.78;;;16.11;68.84